createdAt,value
2023-10-11T00:00:45.884Z,16.42
2023-10-11T00:03:19.524Z,16.44
2023-10-11T00:05:47.972Z,16.15
2023-10-11T00:08:27.819Z,16.06
2023-10-11T00:10:59.616Z,15.77
2023-10-11T00:13:33.898Z,15.82
2023-10-11T00:16:08.453Z,15.66
2023-10-11T00:18:43.460Z,15.52
2023-10-11T00:21:17.488Z,15.44
2023-10-11T00:23:47.219Z,15.06
2023-10-11T00:26:18.940Z,15.34
2023-10-11T00:28:45.921Z,15.00
2023-10-11T00:31:18.437Z,15.13
2023-10-11T00:33:45.720Z,15.19
2023-10-11T00:36:12.594Z,15.29
2023-10-11T00:38:49.286Z,15.16
2023-10-11T00:41:20.862Z,15.18
2023-10-11T00:43:56.497Z,15.20
2023-10-11T00:46:27.699Z,15.33
2023-10-11T00:48:55.884Z,15.44
2023-10-11T00:51:27.575Z,15.66
2023-10-11T00:53:54.665Z,15.73
2023-10-11T00:56:21.998Z,15.80
2023-10-11T00:58:53.095Z,15.66
2023-10-11T01:01:23.148Z,15.73
2023-10-11T01:03:50.509Z,15.74
2023-10-11T01:06:18.466Z,15.74
2023-10-11T01:08:45.034Z,15.80
2023-10-11T01:11:13.163Z,15.83
2023-10-11T01:13:43.991Z,15.73
2023-10-11T01:16:11.904Z,15.54
2023-10-11T01:18:43.813Z,15.50
2023-10-11T01:21:11.433Z,15.43
2023-10-11T01:23:38.111Z,15.45
2023-10-11T01:26:08.622Z,15.45
2023-10-11T01:28:43.836Z,15.34
2023-10-11T01:31:10.636Z,15.59
2023-10-11T01:33:42.520Z,15.38
2023-10-11T01:36:11.392Z,15.30
2023-10-11T01:38:47.845Z,15.29
2023-10-11T01:41:28.471Z,15.36
2023-10-11T01:43:56.569Z,15.01
2023-10-11T01:46:28.526Z,14.83
2023-10-11T01:48:56.715Z,15.17
2023-10-11T01:51:27.767Z,14.85
2023-10-11T01:54:02.359Z,14.71
2023-10-11T01:56:29.290Z,14.72
2023-10-11T01:59:03.018Z,14.78
2023-10-11T02:01:44.478Z,14.82
2023-10-11T02:04:19.457Z,14.63
2023-10-11T02:06:50.125Z,14.51
2023-10-11T02:09:24.272Z,14.51
2023-10-11T02:11:54.061Z,14.44
2023-10-11T02:14:23.856Z,14.20
2023-10-11T02:16:50.969Z,14.17
2023-10-11T02:19:17.613Z,14.18
2023-10-11T02:21:45.531Z,14.02
2023-10-11T02:24:18.352Z,14.06
2023-10-11T02:26:51.202Z,14.10
2023-10-11T02:29:22.580Z,14.15
2023-10-11T02:31:53.720Z,13.64
2023-10-11T02:34:21.142Z,13.97
2023-10-11T02:36:59.041Z,14.18
2023-10-11T02:39:33.581Z,14.15
2023-10-11T02:42:00.791Z,14.24
2023-10-11T02:44:27.516Z,14.06
2023-10-11T02:46:54.587Z,14.22
2023-10-11T02:49:21.812Z,14.13
2023-10-11T02:51:57.533Z,14.12
2023-10-11T02:54:25.777Z,13.97
2023-10-11T02:56:53.870Z,14.05
2023-10-11T02:59:24.006Z,13.92
2023-10-11T03:02:01.917Z,14.00
2023-10-11T03:04:51.146Z,13.93
2023-10-11T03:07:22.789Z,14.09
2023-10-11T03:09:50.003Z,14.15
2023-10-11T03:12:20.297Z,13.96
2023-10-11T03:14:48.358Z,14.16
2023-10-11T03:17:16.008Z,14.08
2023-10-11T03:19:46.495Z,14.02
2023-10-11T03:22:22.412Z,14.00
2023-10-11T03:25:00.706Z,13.97
2023-10-11T03:27:28.669Z,14.01
2023-10-11T03:29:56.485Z,14.13
2023-10-11T03:32:27.242Z,14.06
2023-10-11T03:34:54.732Z,14.01
2023-10-11T03:37:21.350Z,13.98
2023-10-11T03:39:57.724Z,13.97
2023-10-11T03:42:51.434Z,13.86
2023-10-11T03:45:21.993Z,13.79
2023-10-11T03:47:52.759Z,13.94
2023-10-11T03:50:26.466Z,13.99
2023-10-11T03:52:53.042Z,13.86
2023-10-11T03:55:19.539Z,13.79
2023-10-11T03:57:47.358Z,13.79
2023-10-11T04:00:26.346Z,13.71
2023-10-11T04:03:03.893Z,13.68
2023-10-11T04:05:36.267Z,13.62
2023-10-11T04:08:07.624Z,13.57
2023-10-11T04:10:41.218Z,13.65
2023-10-11T04:13:15.810Z,13.61
2023-10-11T04:15:50.649Z,13.58
2023-10-11T04:18:34.889Z,13.45
2023-10-11T04:21:25.590Z,13.45
2023-10-11T04:23:56.967Z,13.46
2023-10-11T04:26:33.867Z,13.41
2023-10-11T04:29:07.867Z,13.30
2023-10-11T04:31:55.153Z,13.36
2023-10-11T04:34:25.266Z,13.24
2023-10-11T04:36:56.803Z,13.27
2023-10-11T04:39:29.859Z,13.26
2023-10-11T04:41:58.527Z,13.26
2023-10-11T04:44:31.955Z,13.08
2023-10-11T04:46:59.942Z,13.16
2023-10-11T04:49:27.102Z,13.14
2023-10-11T04:51:57.753Z,13.07
2023-10-11T04:54:37.608Z,13.12
2023-10-11T04:57:21.318Z,12.99
2023-10-11T04:59:48.130Z,12.97
2023-10-11T05:02:24.062Z,13.08
2023-10-11T05:04:52.969Z,12.95
2023-10-11T05:07:21.376Z,12.96
2023-10-11T05:10:02.342Z,13.05
2023-10-11T05:12:28.965Z,12.93
2023-10-11T05:14:55.601Z,13.01
2023-10-11T05:17:24.714Z,13.09
2023-10-11T05:20:05.014Z,12.98
2023-10-11T05:22:50.239Z,12.86
2023-10-11T05:25:21.368Z,12.81
2023-10-11T05:28:23.296Z,12.86
2023-10-11T05:31:23.298Z,12.85
2023-10-11T05:34:19.206Z,12.74
2023-10-11T05:36:48.317Z,12.93
2023-10-11T05:39:33.293Z,12.92
2023-10-11T05:42:18.283Z,12.68
2023-10-11T05:45:03.391Z,12.90
2023-10-11T05:47:48.363Z,12.87
2023-10-11T05:50:33.608Z,12.98
2023-10-11T05:53:00.113Z,12.99
2023-10-11T05:55:26.644Z,13.02
2023-10-11T05:57:53.233Z,13.02
2023-10-11T06:00:28.551Z,12.93
2023-10-11T06:02:55.200Z,12.94
2023-10-11T06:05:25.119Z,12.82
2023-10-11T06:08:02.450Z,12.75
2023-10-11T06:10:36.434Z,12.75
2023-10-11T06:13:08.490Z,13.00
2023-10-11T06:15:36.253Z,12.97
2023-10-11T06:18:02.921Z,12.89
2023-10-11T06:20:29.682Z,12.86
2023-10-11T06:22:57.379Z,12.92
2023-10-11T06:25:44.725Z,12.98
2023-10-11T06:28:15.118Z,13.09
2023-10-11T06:30:48.342Z,13.16
2023-10-11T06:33:15.159Z,13.31
2023-10-11T06:35:46.434Z,13.41
2023-10-11T06:38:13.921Z,13.59
2023-10-11T06:40:41.002Z,13.67
2023-10-11T06:43:08.915Z,13.59
2023-10-11T06:45:36.512Z,13.86
2023-10-11T06:48:09.742Z,13.99
2023-10-11T06:50:39.708Z,14.09
2023-10-11T06:53:10.633Z,14.15
2023-10-11T06:55:42.150Z,14.31
2023-10-11T06:58:17.260Z,14.40
2023-10-11T07:00:47.048Z,14.48
2023-10-11T07:03:21.009Z,14.66
2023-10-11T07:05:49.007Z,14.68
2023-10-11T07:08:19.967Z,14.71
2023-10-11T07:11:11.796Z,14.62
2023-10-11T07:13:51.082Z,14.82
2023-10-11T07:16:22.110Z,14.87
2023-10-11T07:18:50.027Z,15.02
2023-10-11T07:21:18.089Z,15.15
2023-10-11T07:23:56.853Z,15.19
2023-10-11T07:26:50.045Z,15.32
2023-10-11T07:29:21.837Z,15.37
2023-10-11T07:31:51.763Z,15.45
2023-10-11T07:34:21.375Z,15.69
2023-10-11T07:36:52.673Z,15.72
2023-10-11T07:39:23.508Z,15.87
2023-10-11T07:41:50.781Z,16.00
2023-10-11T07:44:20.813Z,16.14
2023-10-11T07:46:48.012Z,16.39
2023-10-11T07:49:26.834Z,16.46
2023-10-11T07:51:54.499Z,16.47
2023-10-11T07:54:24.223Z,16.66
2023-10-11T07:56:58.867Z,16.69
2023-10-11T07:59:29.215Z,16.91
2023-10-11T08:01:57.937Z,17.09
2023-10-11T08:04:30.396Z,17.08
2023-10-11T08:07:00.839Z,17.23
2023-10-11T08:09:46.395Z,17.43
2023-10-11T08:12:17.470Z,17.47
2023-10-11T08:14:48.209Z,17.73
2023-10-11T08:17:21.139Z,17.90
2023-10-11T08:19:54.524Z,17.95
2023-10-11T08:22:21.396Z,17.82
2023-10-11T08:24:52.393Z,17.92
2023-10-11T08:27:31.674Z,18.17
2023-10-11T08:30:19.134Z,18.34
2023-10-11T08:32:48.112Z,18.61
2023-10-11T08:35:27.670Z,18.66
2023-10-11T08:37:55.110Z,18.97
2023-10-11T08:40:24.152Z,19.17
2023-10-11T08:42:51.836Z,19.46
2023-10-11T08:45:28.225Z,19.28
2023-10-11T08:47:55.289Z,19.44
2023-10-11T08:50:22.394Z,19.51
2023-10-11T08:52:52.316Z,19.87
2023-10-11T08:55:20.783Z,20.20
2023-10-11T08:57:48.540Z,20.30
2023-10-11T09:00:30.791Z,20.44
2023-10-11T09:02:59.743Z,20.57
2023-10-11T09:05:48.585Z,20.82
2023-10-11T09:08:28.305Z,20.69
2023-10-11T09:11:35.685Z,20.79
2023-10-11T09:14:25.217Z,21.04
2023-10-11T09:16:52.517Z,21.38
2023-10-11T09:19:23.298Z,21.59
2023-10-11T09:22:06.730Z,21.44
2023-10-11T09:24:45.891Z,21.42
2023-10-11T09:27:16.386Z,22.02
2023-10-11T09:29:48.161Z,21.86
2023-10-11T09:32:23.416Z,22.54
2023-10-11T09:34:52.403Z,22.03
2023-10-11T09:37:21.841Z,22.58
2023-10-11T09:39:52.259Z,22.68
2023-10-11T09:42:22.818Z,22.62
2023-10-11T09:44:59.494Z,22.92
2023-10-11T09:47:32.432Z,22.89
2023-10-11T09:50:01.278Z,22.93
2023-10-11T09:52:35.339Z,23.18
2023-10-11T09:55:10.204Z,23.81
2023-10-11T09:57:48.486Z,23.78
2023-10-11T10:00:27.753Z,24.23
2023-10-11T10:02:55.813Z,24.20
2023-10-11T10:05:24.360Z,24.19
2023-10-11T10:07:54.148Z,24.40
2023-10-11T10:10:27.397Z,24.36
2023-10-11T10:13:01.983Z,24.59
2023-10-11T10:15:34.336Z,24.54
2023-10-11T10:18:07.228Z,24.67
2023-10-11T10:20:43.148Z,24.89
2023-10-11T10:23:15.898Z,24.59
2023-10-11T10:25:47.552Z,24.72
2023-10-11T10:28:44.105Z,24.98
2023-10-11T10:31:18.528Z,24.76
2023-10-11T10:33:51.473Z,25.29
2023-10-11T10:36:30.876Z,25.24
2023-10-11T10:39:09.763Z,24.99
2023-10-11T10:41:38.248Z,25.12
2023-10-11T10:44:10.088Z,25.44
2023-10-11T10:47:01.250Z,25.42
2023-10-11T10:49:45.530Z,25.51
2023-10-11T10:52:19.210Z,25.79
2023-10-11T10:55:16.151Z,25.27
2023-10-11T10:57:42.993Z,25.90
2023-10-11T11:00:23.594Z,25.80
2023-10-11T11:02:51.495Z,26.11
2023-10-11T11:05:27.337Z,26.45
2023-10-11T11:08:17.150Z,26.66
2023-10-11T11:10:55.730Z,26.33
2023-10-11T11:13:24.571Z,26.23
2023-10-11T11:15:56.602Z,26.57
2023-10-11T11:18:32.301Z,26.67
2023-10-11T11:21:18.327Z,26.58
2023-10-11T11:23:46.610Z,26.67
2023-10-11T11:26:31.923Z,26.35
2023-10-11T11:29:10.688Z,26.58
2023-10-11T11:31:54.753Z,26.48
2023-10-11T11:34:28.730Z,26.38
2023-10-11T11:37:14.252Z,26.45
2023-10-11T11:39:54.458Z,26.65
2023-10-11T11:42:21.497Z,25.95
2023-10-11T11:44:48.931Z,26.58
2023-10-11T11:47:25.166Z,26.23
2023-10-11T11:49:54.683Z,26.90
2023-10-11T11:52:21.448Z,26.63
2023-10-11T11:54:48.488Z,27.20
2023-10-11T11:57:15.142Z,27.54
2023-10-11T11:59:45.180Z,26.87
2023-10-11T12:02:18.253Z,26.86
2023-10-11T12:04:45.613Z,27.38
2023-10-11T12:07:12.369Z,27.16
2023-10-11T12:09:59.584Z,27.44
2023-10-11T12:12:27.686Z,27.07
2023-10-11T12:14:54.361Z,27.27
2023-10-11T12:17:20.843Z,27.34
2023-10-11T12:19:54.381Z,27.50
2023-10-11T12:22:23.289Z,27.01
2023-10-11T12:24:50.121Z,26.99
2023-10-11T12:27:17.439Z,26.98
2023-10-11T12:30:00.594Z,27.20
2023-10-11T12:32:34.683Z,27.66
2023-10-11T12:35:06.153Z,27.14
2023-10-11T12:37:34.408Z,27.14
2023-10-11T12:40:01.382Z,26.85
2023-10-11T12:42:27.982Z,27.34
2023-10-11T12:44:54.481Z,26.99
2023-10-11T12:47:21.607Z,27.23
2023-10-11T12:49:48.067Z,27.60
2023-10-11T12:52:19.264Z,27.50
2023-10-11T12:54:46.002Z,27.51
2023-10-11T12:57:16.478Z,27.55
2023-10-11T12:59:43.195Z,27.67
2023-10-11T13:02:11.373Z,27.37
2023-10-11T13:04:42.465Z,27.59
2023-10-11T13:07:14.840Z,27.87
2023-10-11T13:09:42.078Z,27.43
2023-10-11T13:12:09.650Z,27.79
2023-10-11T13:14:39.284Z,27.88
2023-10-11T13:17:09.578Z,27.88
2023-10-11T13:19:36.275Z,27.70
2023-10-11T13:22:10.712Z,27.77
2023-10-11T13:24:37.519Z,27.41
2023-10-11T13:27:05.427Z,27.65
2023-10-11T13:29:31.966Z,28.06
2023-10-11T13:31:58.965Z,28.14
2023-10-11T13:34:30.413Z,28.72
2023-10-11T13:37:01.737Z,28.45
2023-10-11T13:39:29.296Z,28.42
2023-10-11T13:42:10.443Z,28.39
2023-10-11T13:44:40.075Z,28.31
2023-10-11T13:47:06.918Z,28.18
2023-10-11T13:49:35.100Z,28.36
2023-10-11T13:52:04.447Z,28.34
2023-10-11T13:54:33.331Z,28.11
2023-10-11T13:57:21.793Z,28.32
2023-10-11T13:59:49.395Z,28.41
2023-10-11T14:02:37.499Z,28.34
2023-10-11T14:05:16.996Z,28.01
2023-10-11T14:07:52.305Z,27.93
2023-10-11T14:10:28.004Z,27.54
2023-10-11T14:13:02.460Z,27.85
2023-10-11T14:15:30.882Z,27.50
2023-10-11T14:17:57.508Z,27.89
2023-10-11T14:20:25.441Z,27.83
2023-10-11T14:22:53.477Z,27.43
2023-10-11T14:25:20.140Z,27.82
2023-10-11T14:27:48.024Z,27.68
2023-10-11T14:30:15.468Z,27.80
2023-10-11T14:32:43.320Z,27.48
2023-10-11T14:35:10.339Z,27.60
2023-10-11T14:37:37.085Z,27.30
2023-10-11T14:40:15.242Z,27.18
2023-10-11T14:42:46.627Z,27.53
2023-10-11T14:45:14.833Z,27.64
2023-10-11T14:47:48.883Z,27.32
2023-10-11T14:50:17.130Z,27.07
2023-10-11T14:52:46.019Z,27.06
2023-10-11T14:55:21.306Z,27.29
2023-10-11T14:57:50.828Z,27.27
2023-10-11T15:00:27.111Z,27.69
2023-10-11T15:02:58.437Z,27.28
2023-10-11T15:05:31.206Z,26.90
2023-10-11T15:07:57.742Z,26.73
2023-10-11T15:10:27.676Z,27.03
2023-10-11T15:13:02.057Z,27.18
2023-10-11T15:15:29.068Z,26.89
2023-10-11T15:18:04.113Z,27.10
2023-10-11T15:20:32.589Z,26.96
2023-10-11T15:23:01.800Z,26.60
2023-10-11T15:25:28.723Z,26.86
2023-10-11T15:27:56.536Z,26.52
2023-10-11T15:30:23.146Z,26.55
2023-10-11T15:32:55.933Z,26.54
2023-10-11T15:35:23.097Z,26.49
2023-10-11T15:37:49.699Z,26.56
2023-10-11T15:40:21.346Z,26.15
2023-10-11T15:42:48.157Z,26.46
2023-10-11T15:45:18.803Z,26.17
2023-10-11T15:47:47.646Z,26.31
2023-10-11T15:50:16.056Z,26.22
2023-10-11T15:52:44.046Z,26.11
2023-10-11T15:55:11.943Z,25.92
2023-10-11T15:57:39.162Z,25.84
2023-10-11T16:00:15.756Z,25.81
2023-10-11T16:02:46.145Z,25.35
2023-10-11T16:05:13.997Z,25.38
2023-10-11T16:07:40.494Z,25.05
2023-10-11T16:10:11.365Z,25.18
2023-10-11T16:12:44.546Z,24.98
2023-10-11T16:15:13.808Z,25.28
2023-10-11T16:17:42.679Z,25.03
2023-10-11T16:20:09.993Z,24.92
2023-10-11T16:22:41.525Z,24.84
2023-10-11T16:25:09.656Z,24.68
2023-10-11T16:27:42.065Z,24.69
2023-10-11T16:30:10.425Z,24.74
2023-10-11T16:32:37.303Z,24.68
2023-10-11T16:35:05.065Z,24.70
2023-10-11T16:37:36.088Z,24.69
2023-10-11T16:40:05.286Z,24.51
2023-10-11T16:42:35.360Z,24.28
2023-10-11T16:45:02.432Z,24.02
2023-10-11T16:47:31.933Z,23.87
2023-10-11T16:50:01.241Z,23.75
2023-10-11T16:52:28.611Z,23.64
2023-10-11T16:54:57.769Z,23.80
2023-10-11T16:57:27.405Z,23.56
2023-10-11T16:59:53.930Z,23.51
2023-10-11T17:02:20.642Z,23.59
2023-10-11T17:04:50.334Z,23.63
2023-10-11T17:07:17.540Z,23.65
2023-10-11T17:09:44.193Z,23.40
2023-10-11T17:12:11.444Z,23.28
2023-10-11T17:14:40.139Z,23.32
2023-10-11T17:17:06.815Z,23.20
2023-10-11T17:19:37.256Z,23.01
2023-10-11T17:22:05.731Z,22.89
2023-10-11T17:24:32.537Z,22.83
2023-10-11T17:26:59.103Z,23.00
2023-10-11T17:29:27.191Z,22.72
2023-10-11T17:31:53.808Z,23.14
2023-10-11T17:34:20.445Z,23.32
2023-10-11T17:36:47.807Z,23.06
2023-10-11T17:39:15.099Z,23.25
2023-10-11T17:41:42.890Z,23.10
2023-10-11T17:44:09.414Z,23.01
2023-10-11T17:46:35.992Z,22.44
2023-10-11T17:49:02.585Z,22.25
2023-10-11T17:51:29.249Z,21.93
2023-10-11T17:53:55.816Z,21.85
2023-10-11T17:56:23.291Z,21.70
2023-10-11T17:58:50.178Z,21.93
2023-10-11T18:01:18.860Z,21.66
2023-10-11T18:03:45.547Z,21.84
2023-10-11T18:06:12.120Z,21.96
2023-10-11T18:08:39.574Z,21.66
2023-10-11T18:11:07.158Z,21.72
2023-10-11T18:13:36.179Z,21.51
2023-10-11T18:16:03.309Z,21.42
2023-10-11T18:18:29.849Z,21.30
2023-10-11T18:20:56.430Z,21.08
2023-10-11T18:23:23.048Z,20.73
2023-10-11T18:25:49.730Z,20.53
2023-10-11T18:28:16.214Z,20.45
2023-10-11T18:30:43.697Z,20.51
2023-10-11T18:33:12.862Z,20.36
2023-10-11T18:35:43.132Z,20.51
2023-10-11T18:38:10.477Z,20.36
2023-10-11T18:40:36.966Z,20.30
2023-10-11T18:43:04.468Z,20.47
2023-10-11T18:45:32.894Z,20.33
2023-10-11T18:47:59.666Z,20.57
2023-10-11T18:50:26.601Z,20.64
2023-10-11T18:52:56.371Z,20.64
2023-10-11T18:55:24.248Z,20.53
2023-10-11T18:57:53.036Z,20.51
2023-10-11T19:00:23.851Z,20.51
2023-10-11T19:02:52.687Z,20.43
2023-10-11T19:05:20.485Z,20.41
2023-10-11T19:07:51.942Z,20.46
2023-10-11T19:10:20.089Z,20.55
2023-10-11T19:12:51.335Z,20.56
2023-10-11T19:15:19.050Z,20.61
2023-10-11T19:17:52.149Z,20.29
2023-10-11T19:20:20.569Z,20.26
2023-10-11T19:22:52.878Z,19.89
2023-10-11T19:25:23.001Z,19.78
2023-10-11T19:27:51.263Z,20.06
2023-10-11T19:30:21.918Z,19.65
2023-10-11T19:32:50.029Z,19.44
2023-10-11T19:35:16.693Z,19.35
2023-10-11T19:37:45.422Z,19.36
2023-10-11T19:40:25.792Z,19.35
2023-10-11T19:42:54.391Z,19.63
2023-10-11T19:45:23.982Z,19.69
2023-10-11T19:47:51.690Z,19.94
2023-10-11T19:50:20.022Z,19.86
2023-10-11T19:52:49.347Z,19.62
2023-10-11T19:55:19.004Z,19.65
2023-10-11T19:57:52.480Z,19.87
2023-10-11T20:00:20.707Z,19.74
2023-10-11T20:02:48.821Z,20.00
2023-10-11T20:05:18.680Z,19.95
2023-10-11T20:07:48.189Z,19.99
2023-10-11T20:10:15.110Z,20.06
2023-10-11T20:12:46.872Z,19.94
2023-10-11T20:15:14.714Z,20.01
2023-10-11T20:17:46.218Z,19.95
2023-10-11T20:20:13.861Z,19.94
2023-10-11T20:22:44.349Z,19.79
2023-10-11T20:25:12.720Z,19.78
2023-10-11T20:27:40.704Z,19.58
2023-10-11T20:30:08.423Z,19.60
2023-10-11T20:32:35.395Z,19.33
2023-10-11T20:35:08.049Z,19.49
2023-10-11T20:37:35.274Z,19.22
2023-10-11T20:40:14.576Z,19.28
2023-10-11T20:42:44.678Z,19.42
2023-10-11T20:45:14.636Z,19.38
2023-10-11T20:47:45.920Z,19.34
2023-10-11T20:50:17.513Z,19.06
2023-10-11T20:52:51.533Z,19.02
2023-10-11T20:55:24.156Z,18.82
2023-10-11T20:58:14.777Z,18.86
2023-10-11T21:00:44.137Z,18.94
2023-10-11T21:03:12.895Z,18.67
2023-10-11T21:05:42.068Z,18.73
2023-10-11T21:08:08.890Z,18.60
2023-10-11T21:10:39.105Z,18.58
2023-10-11T21:13:11.556Z,18.61
2023-10-11T21:15:42.042Z,18.61
2023-10-11T21:18:09.416Z,18.75
2023-10-11T21:20:38.636Z,18.64
2023-10-11T21:23:06.503Z,18.75
2023-10-11T21:25:37.753Z,18.83
2023-10-11T21:28:06.308Z,18.52
2023-10-11T21:30:34.907Z,18.64
2023-10-11T21:33:04.832Z,18.64
2023-10-11T21:35:32.456Z,18.46
2023-10-11T21:37:59.531Z,18.39
2023-10-11T21:40:27.582Z,18.43
2023-10-11T21:42:55.599Z,18.49
2023-10-11T21:45:27.276Z,18.44
2023-10-11T21:47:54.001Z,18.69
2023-10-11T21:50:21.699Z,18.65
2023-10-11T21:52:52.766Z,18.64
2023-10-11T21:55:20.670Z,18.54
2023-10-11T21:57:48.885Z,18.58
2023-10-11T22:00:46.503Z,18.57
2023-10-11T22:03:20.114Z,18.63
2023-10-11T22:05:55.294Z,18.66
2023-10-11T22:08:23.009Z,18.63
2023-10-11T22:10:51.742Z,18.58
2023-10-11T22:13:21.822Z,18.54
2023-10-11T22:15:49.469Z,18.56
2023-10-11T22:18:19.608Z,18.35
2023-10-11T22:20:46.256Z,18.20
2023-10-11T22:23:14.044Z,18.19
2023-10-11T22:25:42.431Z,18.19
2023-10-11T22:28:09.874Z,18.07
2023-10-11T22:30:43.912Z,18.20
2023-10-11T22:33:10.696Z,17.97
2023-10-11T22:35:39.350Z,17.82
2023-10-11T22:38:06.259Z,17.58
2023-10-11T22:40:32.922Z,17.48
2023-10-11T22:43:05.172Z,17.41
2023-10-11T22:45:40.372Z,17.48
2023-10-11T22:48:07.196Z,17.40
2023-10-11T22:50:34.907Z,17.40
2023-10-11T22:53:03.923Z,17.36
2023-10-11T22:55:32.818Z,17.47
2023-10-11T22:58:03.775Z,17.38
2023-10-11T23:00:34.064Z,17.50
2023-10-11T23:03:03.828Z,17.45
2023-10-11T23:05:31.609Z,17.47
2023-10-11T23:07:58.914Z,17.44
2023-10-11T23:10:27.320Z,17.46
2023-10-11T23:12:57.670Z,17.16
2023-10-11T23:15:34.878Z,17.32
2023-10-11T23:18:22.289Z,17.39
2023-10-11T23:21:02.024Z,17.25
2023-10-11T23:23:30.673Z,17.22
2023-10-11T23:26:05.909Z,17.23
2023-10-11T23:28:37.081Z,17.22
2023-10-11T23:31:05.157Z,17.09
2023-10-11T23:33:35.137Z,17.30
2023-10-11T23:36:12.017Z,17.30
2023-10-11T23:38:48.163Z,17.34
2023-10-11T23:41:36.706Z,17.40
2023-10-11T23:44:18.411Z,17.45
2023-10-11T23:46:59.936Z,17.46
2023-10-11T23:52:13.332Z,16.93
2023-10-11T23:54:40.832Z,17.10
2023-10-11T23:57:19.556Z,16.90
2023-10-11T23:59:46.458Z,16.83
